Abilene/Dyess AFB, Texas
Current Conditions -  °F | °C
As of 1:58 AM on Friday 28 Nov 2014 (Local Time) from KDYS Reporting Station
Clear Clear  
Wind Chill: 44°   Ceiling: Unl
Heat Index: 49°   Visibility: 10mi
Dew Point: 33°   Wind: 13mph
Humidity: 55%   Direction: 200°SSW
Pressure: 30.23"   Gusts: 21mph
Location:  32.43°N, 99.83°W
Report Text: KDYS 280758Z AUTO 20011G18KT 10SM CLR 09/01 A3023 RMK AO2 SLP225 T00930006 $
Loading
Personal Weather Stations






























Interactive Weather Map New forecast layout! Learn more

10-Day Weather Forecast

Advertisements
Track Severe Weather on mobile